createdAt,value
2022-08-25T00:01:34.400Z,10.52
2022-08-25T00:04:03.206Z,10.40
2022-08-25T00:06:30.481Z,10.48
2022-08-25T00:08:59.659Z,10.55
2022-08-25T00:11:28.942Z,10.17
2022-08-25T00:14:00.461Z,9.97
2022-08-25T00:16:28.775Z,10.50
2022-08-25T00:18:58.871Z,10.73
2022-08-25T00:23:52.827Z,10.50
2022-08-25T00:26:20.382Z,11.23
2022-08-25T00:28:47.828Z,10.73
2022-08-25T00:31:20.232Z,11.20
2022-08-25T00:33:48.755Z,10.90
2022-08-25T00:36:16.771Z,11.32
2022-08-25T00:38:45.727Z,10.82
2022-08-25T00:41:15.753Z,11.05
2022-08-25T00:43:42.392Z,11.65
2022-08-25T00:46:10.111Z,11.38
2022-08-25T00:48:38.883Z,11.35
2022-08-25T00:51:09.690Z,11.32
2022-08-25T00:53:36.414Z,10.82
2022-08-25T00:56:03.728Z,11.25
2022-08-25T00:58:34.286Z,11.25
2022-08-25T01:01:01.538Z,11.55
2022-08-25T01:03:35.793Z,11.70
2022-08-25T01:06:04.349Z,11.52
2022-08-25T01:08:32.647Z,11.43
2022-08-25T01:11:02.954Z,11.18
2022-08-25T01:13:35.226Z,11.40
2022-08-25T01:16:02.510Z,11.95
2022-08-25T01:18:42.143Z,12.13
2022-08-25T01:21:08.620Z,11.95
2022-08-25T01:23:35.102Z,11.98
2022-08-25T01:26:09.581Z,12.35
2022-08-25T01:28:37.849Z,12.23
2022-08-25T01:31:05.295Z,12.60
2022-08-25T01:33:50.707Z,12.25
2022-08-25T01:36:21.399Z,12.40
2022-08-25T01:38:47.849Z,12.30
2022-08-25T01:41:21.399Z,12.00
2022-08-25T01:43:48.121Z,12.23
2022-08-25T01:46:14.787Z,12.98
2022-08-25T01:48:41.264Z,13.10
2022-08-25T01:51:07.714Z,13.15
2022-08-25T01:53:34.451Z,12.73
2022-08-25T01:56:10.127Z,13.43
2022-08-25T01:58:39.776Z,13.52
2022-08-25T02:01:09.984Z,13.02
2022-08-25T02:03:41.193Z,14.00
2022-08-25T02:06:10.877Z,12.80
2022-08-25T02:08:38.228Z,13.75
2022-08-25T02:11:04.906Z,13.30
2022-08-25T02:13:32.475Z,13.65
2022-08-25T02:16:01.135Z,14.05
2022-08-25T02:18:28.031Z,14.40
2022-08-25T02:20:54.527Z,13.63
2022-08-25T02:23:21.117Z,14.85
2022-08-25T02:25:47.703Z,14.00
2022-08-25T02:28:14.586Z,13.57
2022-08-25T02:30:43.214Z,14.35
2022-08-25T02:33:10.170Z,14.38
2022-08-25T02:35:36.771Z,14.07
2022-08-25T02:38:04.224Z,14.23
2022-08-25T02:40:30.921Z,14.60
2022-08-25T02:42:57.474Z,13.98
2022-08-25T02:45:23.976Z,13.32
2022-08-25T02:47:50.442Z,14.82
2022-08-25T02:50:16.940Z,14.45
2022-08-25T02:52:43.451Z,14.60
2022-08-25T02:55:14.053Z,14.52
2022-08-25T02:57:42.064Z,14.95
2022-08-25T03:00:09.997Z,15.20
2022-08-25T03:02:41.282Z,15.68
2022-08-25T03:05:09.291Z,15.55
2022-08-25T03:07:38.375Z,15.60
2022-08-25T03:10:15.205Z,15.18
2022-08-25T03:12:41.761Z,14.95
2022-08-25T03:15:13.511Z,15.55
2022-08-25T03:17:40.303Z,15.52
2022-08-25T03:20:08.010Z,16.10
2022-08-25T03:22:34.929Z,16.02
2022-08-25T03:25:24.002Z,16.13
2022-08-25T03:27:51.882Z,16.60
2022-08-25T03:30:18.810Z,17.70
2022-08-25T03:32:45.702Z,16.55
2022-08-25T03:35:12.663Z,17.40
2022-08-25T03:37:39.562Z,17.42
2022-08-25T03:40:09.367Z,17.55
2022-08-25T03:42:45.942Z,17.75
2022-08-25T03:45:16.210Z,17.48
2022-08-25T03:50:10.898Z,17.42
2022-08-25T03:52:41.814Z,17.85
2022-08-25T03:55:11.895Z,17.98
2022-08-25T03:57:38.516Z,18.17
2022-08-25T04:00:08.115Z,18.60
2022-08-25T04:02:34.677Z,17.77
2022-08-25T04:05:01.625Z,18.95
2022-08-25T04:07:28.978Z,19.13
2022-08-25T04:09:56.211Z,19.10
2022-08-25T04:12:23.171Z,19.50
2022-08-25T04:14:50.199Z,20.17
2022-08-25T04:17:17.610Z,19.85
2022-08-25T04:19:44.276Z,20.15
2022-08-25T04:22:11.159Z,19.05
2022-08-25T04:24:39.794Z,19.98
2022-08-25T04:27:06.204Z,20.65
2022-08-25T04:29:34.190Z,20.45
2022-08-25T04:32:01.099Z,21.92
2022-08-25T04:34:30.146Z,22.10
2022-08-25T04:36:59.023Z,20.98
2022-08-25T04:39:25.486Z,21.40
2022-08-25T04:41:51.968Z,20.80
2022-08-25T04:44:18.996Z,20.95
2022-08-25T04:46:45.522Z,21.20
2022-08-25T04:49:12.372Z,21.88
2022-08-25T04:51:41.676Z,21.88
2022-08-25T04:54:11.781Z,20.73
2022-08-25T04:56:41.256Z,21.63
2022-08-25T04:59:13.247Z,21.58
2022-08-25T05:01:42.687Z,22.65
2022-08-25T05:04:25.674Z,21.48
2022-08-25T05:06:55.263Z,22.30
2022-08-25T05:09:21.766Z,20.65
2022-08-25T05:11:48.720Z,21.17
2022-08-25T05:14:18.159Z,21.40
2022-08-25T05:16:45.193Z,21.42
2022-08-25T05:19:11.800Z,21.58
2022-08-25T05:21:38.327Z,21.27
2022-08-25T05:24:05.125Z,20.30
2022-08-25T05:26:33.200Z,21.23
2022-08-25T05:29:01.626Z,21.90
2022-08-25T05:31:28.963Z,20.55
2022-08-25T05:33:56.066Z,19.63
2022-08-25T05:36:23.775Z,19.85
2022-08-25T05:38:50.434Z,19.15
2022-08-25T05:41:19.606Z,18.80
2022-08-25T05:43:48.859Z,18.63
2022-08-25T05:46:18.789Z,17.70
2022-08-25T05:48:46.105Z,17.48
2022-08-25T05:51:14.884Z,16.92
2022-08-25T05:53:43.701Z,17.77
2022-08-25T05:56:10.874Z,17.45
2022-08-25T05:58:39.025Z,16.60
2022-08-25T06:01:24.124Z,17.05
2022-08-25T06:03:54.317Z,16.65
2022-08-25T06:06:22.939Z,16.92
2022-08-25T06:08:49.416Z,15.88
2022-08-25T06:11:16.457Z,16.25
2022-08-25T06:13:43.169Z,16.77
2022-08-25T06:16:09.759Z,16.33
2022-08-25T06:18:36.316Z,16.27
2022-08-25T06:21:11.246Z,15.73
2022-08-25T06:23:38.297Z,17.30
2022-08-25T06:26:05.215Z,20.85
2022-08-25T06:28:31.664Z,20.15
2022-08-25T06:31:02.153Z,23.02
2022-08-25T06:33:28.940Z,23.90
2022-08-25T06:35:57.142Z,25.33
2022-08-25T06:38:24.270Z,25.75
2022-08-25T06:40:55.072Z,25.95
2022-08-25T06:43:21.903Z,25.63
2022-08-25T06:45:48.960Z,24.85
2022-08-25T06:48:15.742Z,24.63
2022-08-25T06:50:43.260Z,24.48
2022-08-25T06:53:09.786Z,23.45
2022-08-25T06:55:36.814Z,23.73
2022-08-25T06:58:04.952Z,23.02
2022-08-25T07:00:32.838Z,22.23
2022-08-25T07:03:01.178Z,21.27
2022-08-25T07:05:40.934Z,22.33
2022-08-25T07:08:11.750Z,23.10
2022-08-25T07:10:38.385Z,23.08
2022-08-25T07:13:04.937Z,22.35
2022-08-25T07:15:31.406Z,21.88
2022-08-25T07:17:57.916Z,21.73
2022-08-25T07:22:52.962Z,20.85
2022-08-25T07:25:19.406Z,20.42
2022-08-25T07:27:46.041Z,21.98
2022-08-25T07:30:12.589Z,21.20
2022-08-25T07:32:42.074Z,21.75
2022-08-25T07:35:16.013Z,21.33
2022-08-25T07:37:50.579Z,20.08
2022-08-25T07:40:23.647Z,19.20
2022-08-25T07:42:52.338Z,18.85
2022-08-25T07:45:20.655Z,20.00
2022-08-25T07:47:47.623Z,20.02
2022-08-25T07:50:14.651Z,20.05
2022-08-25T07:52:41.616Z,18.30
2022-08-25T07:55:11.164Z,18.60
2022-08-25T07:57:40.047Z,17.40
2022-08-25T08:00:08.034Z,18.15
2022-08-25T08:02:38.601Z,19.43
2022-08-25T08:05:09.558Z,18.33
2022-08-25T08:10:42.186Z,17.33
2022-08-25T08:13:00.502Z,16.53
2022-08-25T08:15:29.940Z,18.13
2022-08-25T08:17:57.093Z,17.75
2022-08-25T08:20:24.535Z,16.35
2022-08-25T08:22:50.996Z,16.52
2022-08-25T08:25:18.746Z,18.05
2022-08-25T08:27:48.839Z,16.85
2022-08-25T08:30:15.504Z,17.45
2022-08-25T08:33:08.784Z,17.67
2022-08-25T08:35:28.575Z,16.73
2022-08-25T08:37:55.025Z,16.25
2022-08-25T08:40:22.000Z,16.48
2022-08-25T08:43:02.348Z,16.05
2022-08-25T08:45:56.795Z,15.70
2022-08-25T08:49:00.335Z,15.63
2022-08-25T08:51:35.882Z,14.73
2022-08-25T08:54:20.664Z,14.55
2022-08-25T08:57:03.836Z,13.60
2022-08-25T08:59:41.741Z,14.52
2022-08-25T09:02:16.518Z,14.82
2022-08-25T09:05:07.233Z,16.00
2022-08-25T09:07:44.904Z,15.95
2022-08-25T09:10:16.239Z,14.68
2022-08-25T09:13:26.132Z,14.40
2022-08-25T09:16:33.751Z,13.75
2022-08-25T09:19:31.334Z,14.80
2022-08-25T09:22:01.368Z,14.68
2022-08-25T09:24:51.482Z,15.02
2022-08-25T09:27:24.567Z,15.48
2022-08-25T09:30:05.594Z,13.98
2022-08-25T09:32:40.279Z,13.68
2022-08-25T09:35:09.988Z,14.50
2022-08-25T09:37:36.411Z,15.52
2022-08-25T09:40:03.836Z,15.07
2022-08-25T09:42:49.893Z,15.35
2022-08-25T09:45:17.132Z,15.43
2022-08-25T09:47:45.433Z,14.52
2022-08-25T09:50:20.029Z,16.02
2022-08-25T09:52:46.736Z,14.23
2022-08-25T09:55:28.188Z,14.93
2022-08-25T09:57:57.444Z,14.70
2022-08-25T10:00:33.848Z,15.15
2022-08-25T10:03:07.982Z,14.75
2022-08-25T10:05:41.526Z,14.38
2022-08-25T10:08:36.416Z,13.95
2022-08-25T10:11:08.937Z,13.85
2022-08-25T10:13:42.007Z,13.95
2022-08-25T10:16:36.031Z,13.88
2022-08-25T10:19:23.574Z,12.70
2022-08-25T10:22:06.306Z,11.63
2022-08-25T10:24:35.043Z,11.70
2022-08-25T10:27:06.390Z,13.68
2022-08-25T10:30:10.921Z,13.55
2022-08-25T10:32:57.614Z,12.73
2022-08-25T10:35:29.145Z,12.77
2022-08-25T10:38:07.492Z,11.85
2022-08-25T10:43:30.109Z,11.35
2022-08-25T10:46:36.576Z,11.23
2022-08-25T10:49:19.359Z,11.32
2022-08-25T10:51:46.236Z,11.23
2022-08-25T10:54:27.718Z,11.25
2022-08-25T10:57:36.213Z,11.20
2022-08-25T11:00:13.557Z,11.07
2022-08-25T11:02:55.491Z,11.25
2022-08-25T11:05:36.921Z,10.18
2022-08-25T11:08:36.060Z,10.60
2022-08-25T11:11:17.464Z,10.52
2022-08-25T11:14:00.294Z,10.13
2022-08-25T11:16:57.827Z,9.50
2022-08-25T11:19:32.815Z,8.90
2022-08-25T11:22:16.175Z,8.90
2022-08-25T11:24:51.732Z,8.60
2022-08-25T11:27:25.344Z,8.82
2022-08-25T11:30:14.149Z,8.65
2022-08-25T11:32:46.709Z,9.15
2022-08-25T11:35:16.979Z,8.50
2022-08-25T11:38:06.484Z,8.60
2022-08-25T11:40:33.087Z,8.90
2022-08-25T11:43:22.647Z,9.00
2022-08-25T11:46:00.922Z,9.20
2022-08-25T11:48:41.571Z,8.98
2022-08-25T11:51:11.801Z,9.98
2022-08-25T11:53:42.608Z,9.20
2022-08-25T11:56:31.874Z,9.50
2022-08-25T11:58:59.491Z,8.85
2022-08-25T12:01:32.699Z,8.98
2022-08-25T12:04:42.206Z,8.45
2022-08-25T12:07:21.995Z,8.43
2022-08-25T12:09:51.640Z,8.98
2022-08-25T12:12:44.145Z,8.40
2022-08-25T12:15:24.373Z,8.85
2022-08-25T12:18:13.168Z,9.18
2022-08-25T12:20:58.354Z,8.50
2022-08-25T12:24:02.901Z,8.30
2022-08-25T12:26:42.070Z,9.10
2022-08-25T12:29:26.658Z,8.45
2022-08-25T12:31:57.421Z,8.73
2022-08-25T12:34:46.454Z,9.65
2022-08-25T12:37:19.268Z,8.88
2022-08-25T12:39:49.885Z,8.70
2022-08-25T12:42:38.317Z,9.30
2022-08-25T12:45:32.489Z,8.88
2022-08-25T12:48:27.911Z,8.18
2022-08-25T12:51:02.676Z,8.63
2022-08-25T12:53:35.210Z,8.55
2022-08-25T12:56:28.086Z,8.13
2022-08-25T12:59:07.521Z,8.43
2022-08-25T13:01:59.234Z,8.77
2022-08-25T13:04:48.408Z,8.55
2022-08-25T13:07:43.113Z,8.23
2022-08-25T13:10:15.550Z,8.85
2022-08-25T13:13:05.106Z,8.30
2022-08-25T13:16:01.132Z,9.50
2022-08-25T13:18:27.494Z,8.82
2022-08-25T13:21:18.179Z,8.68
2022-08-25T13:23:50.743Z,8.82
2022-08-25T13:26:27.141Z,9.10
2022-08-25T13:29:20.841Z,8.48
2022-08-25T13:31:59.841Z,8.30
2022-08-25T13:34:34.480Z,9.02
2022-08-25T13:37:25.565Z,8.63
2022-08-25T13:40:26.906Z,8.77
2022-08-25T13:42:59.461Z,8.10
2022-08-25T13:45:31.780Z,8.02
2022-08-25T13:47:58.786Z,8.48
2022-08-25T13:50:31.246Z,8.90
2022-08-25T13:53:25.822Z,8.50
2022-08-25T13:55:56.921Z,8.73
2022-08-25T13:58:38.584Z,8.75
2022-08-25T14:01:47.727Z,8.55
2022-08-25T14:04:22.381Z,7.82
2022-08-25T14:06:49.513Z,7.72
2022-08-25T14:09:28.270Z,8.57
2022-08-25T14:11:58.536Z,7.95
2022-08-25T14:14:24.882Z,9.63
2022-08-25T14:16:58.782Z,8.20
2022-08-25T14:19:26.228Z,8.70
2022-08-25T14:21:56.638Z,8.10
2022-08-25T14:24:23.862Z,8.30
2022-08-25T14:26:54.106Z,8.40
2022-08-25T14:29:22.212Z,12.43
2022-08-25T14:31:49.865Z,9.50
2022-08-25T14:34:22.666Z,8.38
2022-08-25T14:36:50.670Z,8.55
2022-08-25T14:39:17.916Z,8.55
2022-08-25T14:41:48.730Z,9.02
2022-08-25T14:44:20.367Z,8.93
2022-08-25T14:46:54.097Z,8.95
2022-08-25T14:49:33.858Z,9.10
2022-08-25T14:52:24.431Z,8.65
2022-08-25T14:54:50.884Z,8.65
2022-08-25T14:57:17.377Z,8.75
2022-08-25T14:59:43.880Z,9.07
2022-08-25T15:02:14.184Z,8.90
2022-08-25T15:04:48.871Z,11.10
2022-08-25T15:07:34.813Z,9.10
2022-08-25T15:10:01.252Z,9.02
2022-08-25T15:12:46.493Z,8.98
2022-08-25T15:15:14.275Z,9.05
2022-08-25T15:17:41.943Z,8.40
2022-08-25T15:20:11.568Z,9.05
2022-08-25T15:22:37.969Z,8.68
2022-08-25T15:25:05.123Z,9.10
2022-08-25T15:27:31.970Z,8.80
2022-08-25T15:29:58.411Z,8.45
2022-08-25T15:32:24.972Z,8.45
2022-08-25T15:37:20.899Z,8.52
2022-08-25T15:39:48.904Z,9.30
2022-08-25T15:42:16.363Z,8.82
2022-08-25T15:44:53.173Z,9.10
2022-08-25T15:47:20.584Z,9.02
2022-08-25T15:49:47.187Z,8.48
2022-08-25T15:52:13.668Z,9.27
2022-08-25T15:54:40.201Z,8.48
2022-08-25T15:57:09.197Z,8.55
2022-08-25T15:59:40.208Z,8.85
2022-08-25T16:02:14.717Z,8.75
2022-08-25T16:04:41.844Z,8.63
2022-08-25T16:07:09.286Z,8.68
2022-08-25T16:09:41.014Z,8.30
2022-08-25T16:12:08.613Z,8.27
2022-08-25T16:14:36.638Z,8.23
2022-08-25T16:17:03.818Z,8.60
2022-08-25T16:19:31.349Z,8.20
2022-08-25T16:21:58.983Z,8.50
2022-08-25T16:24:26.953Z,8.80
2022-08-25T16:26:55.859Z,8.70
2022-08-25T16:29:23.191Z,8.77
2022-08-25T16:31:53.370Z,9.27
2022-08-25T16:34:22.304Z,9.00
2022-08-25T16:36:52.039Z,8.63
2022-08-25T16:39:19.899Z,8.77
2022-08-25T16:41:47.424Z,8.85
2022-08-25T16:44:14.138Z,8.57
2022-08-25T16:46:42.109Z,8.88
2022-08-25T16:49:13.532Z,8.75
2022-08-25T16:51:42.737Z,8.18
2022-08-25T16:54:29.566Z,8.45
2022-08-25T16:56:57.447Z,8.55
2022-08-25T16:59:24.871Z,9.18
2022-08-25T17:01:52.541Z,9.27
2022-08-25T17:04:19.557Z,9.30
2022-08-25T17:06:49.444Z,9.57
2022-08-25T17:09:23.006Z,8.98
2022-08-25T17:11:52.568Z,9.10
2022-08-25T17:14:21.137Z,8.90
2022-08-25T17:16:48.549Z,8.93
2022-08-25T17:21:50.914Z,8.90
2022-08-25T17:24:17.822Z,8.88
2022-08-25T17:26:47.244Z,9.10
2022-08-25T17:29:13.780Z,8.75
2022-08-25T17:31:40.483Z,9.65
2022-08-25T17:34:10.325Z,9.45
2022-08-25T17:36:36.969Z,9.50
2022-08-25T17:39:03.927Z,9.10
2022-08-25T17:41:30.400Z,10.00
2022-08-25T17:43:57.320Z,9.40
2022-08-25T17:46:24.073Z,10.05
2022-08-25T17:48:51.295Z,9.38
2022-08-25T17:51:18.469Z,9.90
2022-08-25T17:53:45.148Z,10.43
2022-08-25T17:56:16.639Z,9.95
2022-08-25T18:01:19.740Z,10.50
2022-08-25T18:03:49.316Z,9.95
2022-08-25T18:06:16.274Z,9.95
2022-08-25T18:08:43.635Z,10.88
2022-08-25T18:11:10.274Z,10.70
2022-08-25T18:13:38.577Z,9.95
2022-08-25T18:16:06.032Z,10.38
2022-08-25T18:18:36.078Z,10.00
2022-08-25T18:21:02.926Z,10.95
2022-08-25T18:23:29.599Z,9.80
2022-08-25T18:26:01.049Z,10.23
2022-08-25T18:28:28.724Z,9.70
2022-08-25T18:30:55.494Z,10.05
2022-08-25T18:33:23.130Z,10.30
2022-08-25T18:35:49.692Z,9.98
2022-08-25T18:38:34.593Z,10.05
2022-08-25T18:41:04.786Z,10.43
2022-08-25T18:43:34.029Z,10.57
2022-08-25T18:46:04.169Z,10.43
2022-08-25T18:48:32.094Z,10.73
2022-08-25T18:50:59.812Z,10.05
2022-08-25T18:53:36.713Z,10.93
2022-08-25T18:56:04.725Z,10.00
2022-08-25T18:58:31.490Z,10.20
2022-08-25T19:00:57.939Z,10.07
2022-08-25T19:03:24.554Z,9.98
2022-08-25T19:05:55.060Z,10.20
2022-08-25T19:08:24.823Z,11.23
2022-08-25T19:10:53.212Z,10.90
2022-08-25T19:13:22.828Z,10.20
2022-08-25T19:15:50.912Z,9.80
2022-08-25T19:18:18.568Z,10.23
2022-08-25T19:20:45.623Z,11.15
2022-08-25T19:23:13.108Z,11.10
2022-08-25T19:25:41.724Z,10.45
2022-08-25T19:28:11.908Z,10.85
2022-08-25T19:30:39.104Z,10.02
2022-08-25T19:33:16.831Z,10.50
2022-08-25T19:36:03.907Z,10.73
2022-08-25T19:38:33.921Z,10.85
2022-08-25T19:41:02.560Z,10.65
2022-08-25T19:43:35.987Z,13.45
2022-08-25T19:46:02.974Z,12.27
2022-08-25T19:48:29.557Z,11.52
2022-08-25T19:50:56.348Z,11.32
2022-08-25T19:53:22.878Z,11.25
2022-08-25T19:55:49.312Z,11.68
2022-08-25T19:58:15.963Z,12.52
2022-08-25T20:00:47.133Z,11.75
2022-08-25T20:03:17.366Z,12.52
2022-08-25T20:05:43.820Z,11.80
2022-08-25T20:08:10.281Z,11.73
2022-08-25T20:10:42.011Z,10.98
2022-08-25T20:13:09.567Z,10.88
2022-08-25T20:15:37.269Z,11.10
2022-08-25T20:18:06.259Z,11.02
2022-08-25T20:20:34.601Z,11.35
2022-08-25T20:23:20.907Z,10.82
2022-08-25T20:25:50.240Z,11.20
2022-08-25T20:28:18.904Z,11.10
2022-08-25T20:30:51.923Z,10.65
2022-08-25T20:33:20.186Z,10.88
2022-08-25T20:35:49.832Z,11.38
2022-08-25T20:38:19.921Z,10.93
2022-08-25T20:40:46.338Z,11.02
2022-08-25T20:43:15.316Z,11.15
2022-08-25T20:45:42.064Z,10.70
2022-08-25T20:48:09.554Z,11.75
2022-08-25T20:50:38.619Z,12.18
2022-08-25T20:53:05.759Z,10.68
2022-08-25T20:55:42.541Z,11.25
2022-08-25T20:58:10.364Z,11.18
2022-08-25T21:00:36.842Z,10.40
2022-08-25T21:03:03.322Z,10.82
2022-08-25T21:05:29.821Z,11.00
2022-08-25T21:07:56.227Z,11.43
2022-08-25T21:10:23.427Z,12.18
2022-08-25T21:12:53.344Z,11.15
2022-08-25T21:15:20.432Z,12.20
2022-08-25T21:17:54.531Z,11.48
2022-08-25T21:20:23.797Z,11.02
2022-08-25T21:22:51.168Z,11.52
2022-08-25T21:25:20.393Z,12.02
2022-08-25T21:27:48.059Z,12.20
2022-08-25T21:30:15.736Z,11.82
2022-08-25T21:32:52.963Z,11.68
2022-08-25T21:35:21.319Z,11.48
2022-08-25T21:37:53.483Z,11.60
2022-08-25T21:40:21.217Z,11.32
2022-08-25T21:42:48.806Z,11.68
2022-08-25T21:45:15.464Z,11.68
2022-08-25T21:47:42.583Z,12.65
2022-08-25T21:50:10.872Z,11.38
2022-08-25T21:52:37.386Z,11.57
2022-08-25T21:55:05.016Z,11.52
2022-08-25T21:57:32.000Z,11.75
2022-08-25T21:59:58.548Z,12.07
2022-08-25T22:02:25.385Z,11.50
2022-08-25T22:04:54.203Z,12.20
2022-08-25T22:07:22.396Z,11.68
2022-08-25T22:09:51.303Z,11.80
2022-08-25T22:12:21.402Z,11.65
2022-08-25T22:14:48.365Z,11.80
2022-08-25T22:17:16.634Z,12.93
2022-08-25T22:19:43.777Z,12.05
2022-08-25T22:22:10.206Z,11.50
2022-08-25T22:24:36.892Z,11.60
2022-08-25T22:27:04.430Z,12.48
2022-08-25T22:29:43.455Z,11.43
2022-08-25T22:32:09.930Z,12.57
2022-08-25T22:37:07.235Z,12.57
2022-08-25T22:39:34.893Z,12.43
2022-08-25T22:42:04.873Z,13.00
2022-08-25T22:44:31.696Z,13.68
2022-08-25T22:46:58.124Z,13.25
2022-08-25T22:49:28.314Z,13.55
2022-08-25T22:51:55.351Z,13.10
2022-08-25T22:54:22.894Z,13.23
2022-08-25T22:56:50.776Z,13.13
2022-08-25T22:59:17.548Z,13.70
2022-08-25T23:01:45.149Z,13.50
2022-08-25T23:04:12.137Z,13.60
2022-08-25T23:06:39.288Z,12.65
2022-08-25T23:09:08.179Z,13.20
2022-08-25T23:11:38.493Z,13.13
2022-08-25T23:14:09.411Z,13.48
2022-08-25T23:16:36.127Z,13.48
2022-08-25T23:19:02.610Z,12.90
2022-08-25T23:21:48.025Z,13.93
2022-08-25T23:24:29.917Z,13.60
2022-08-25T23:26:58.782Z,13.65
2022-08-25T23:29:25.438Z,14.48
2022-08-25T23:31:52.063Z,13.65
2022-08-25T23:34:21.721Z,13.13
2022-08-25T23:36:49.038Z,13.77
2022-08-25T23:39:15.743Z,13.75
2022-08-25T23:41:42.272Z,13.20
2022-08-25T23:44:11.756Z,13.25
2022-08-25T23:46:44.458Z,12.93
2022-08-25T23:49:11.040Z,13.63
2022-08-25T23:51:40.066Z,13.93
2022-08-25T23:54:10.831Z,14.27
2022-08-25T23:56:44.853Z,14.25
2022-08-25T23:59:24.670Z,14.30
